createdAt,value
2018-09-20T00:01:09.890Z,99048.21
2018-09-20T00:03:38.235Z,99044.95
2018-09-20T00:06:06.551Z,99044.30
2018-09-20T00:08:34.890Z,99045.59
2018-09-20T00:11:03.201Z,99045.65
2018-09-20T00:13:31.563Z,99048.09
2018-09-20T00:15:59.925Z,99045.39
2018-09-20T00:18:28.394Z,99046.44
2018-09-20T00:20:56.726Z,99039.41
2018-09-20T00:23:25.040Z,99042.33
2018-09-20T00:25:53.411Z,99041.80
2018-09-20T00:28:21.752Z,99044.55
2018-09-20T00:30:50.367Z,99045.55
2018-09-20T00:33:18.713Z,99037.12
2018-09-20T00:35:47.276Z,99028.42
2018-09-20T00:38:15.711Z,99033.39
2018-09-20T00:40:44.100Z,99029.91
2018-09-20T00:43:12.377Z,99030.77
2018-09-20T00:45:40.727Z,99038.02
2018-09-20T00:48:09.040Z,99037.84
2018-09-20T00:50:37.588Z,99032.30
2018-09-20T00:53:06.243Z,99026.89
2018-09-20T00:55:34.547Z,99033.95
2018-09-20T00:58:02.855Z,99027.72
2018-09-20T01:00:31.222Z,99036.51
2018-09-20T01:02:59.670Z,99035.16
2018-09-20T01:05:28.098Z,99034.81
2018-09-20T01:07:56.434Z,99043.92
2018-09-20T01:10:24.763Z,99035.48
2018-09-20T01:12:53.098Z,99037.69
2018-09-20T01:15:21.427Z,99028.08
2018-09-20T01:17:49.781Z,99024.72
2018-09-20T01:20:18.182Z,99028.77
2018-09-20T01:22:46.607Z,99025.91
2018-09-20T01:25:14.950Z,99029.27
2018-09-20T01:27:43.304Z,99029.73
2018-09-20T01:30:11.703Z,99031.75
2018-09-20T01:32:40.018Z,99024.03
2018-09-20T01:35:08.402Z,99024.16
2018-09-20T01:37:36.744Z,99034.41
2018-09-20T01:40:05.106Z,99037.24
2018-09-20T01:42:33.430Z,99037.36
2018-09-20T01:45:01.808Z,99037.74
2018-09-20T01:47:30.127Z,99037.02
2018-09-20T01:49:58.495Z,99031.30
2018-09-20T01:52:26.871Z,99038.08
2018-09-20T01:54:55.205Z,99031.98
2018-09-20T01:57:23.558Z,99033.33
2018-09-20T01:59:51.885Z,99038.71
2018-09-20T02:02:21.003Z,99035.34
2018-09-20T02:04:49.482Z,99038.20
2018-09-20T02:07:17.942Z,99032.60
2018-09-20T02:09:46.331Z,99031.98
2018-09-20T02:12:14.646Z,99035.38
2018-09-20T02:14:42.992Z,99025.70
2018-09-20T02:17:11.305Z,99032.87
2018-09-20T02:19:39.657Z,99030.57
2018-09-20T02:22:08.054Z,99029.55
2018-09-20T02:24:36.407Z,99033.23
2018-09-20T02:27:04.719Z,99032.86
2018-09-20T02:29:33.159Z,99030.32
2018-09-20T02:32:01.507Z,99037.53
2018-09-20T02:34:29.838Z,99031.71
2018-09-20T02:36:58.183Z,99033.30
2018-09-20T02:39:26.486Z,99038.47
2018-09-20T02:41:54.848Z,99044.82
2018-09-20T02:44:23.175Z,99042.20
2018-09-20T02:46:51.572Z,99033.86
2018-09-20T02:49:20.296Z,99039.61
2018-09-20T02:51:48.638Z,99039.38
2018-09-20T02:54:17.047Z,99036.82
2018-09-20T02:56:45.423Z,99037.81
2018-09-20T02:59:13.894Z,99040.37
2018-09-20T03:01:42.300Z,99042.55
2018-09-20T03:04:10.639Z,99040.73
2018-09-20T03:06:38.934Z,99047.53
2018-09-20T03:09:09.081Z,99047.45
2018-09-20T03:11:37.449Z,99050.11
2018-09-20T03:14:06.056Z,99043.34
2018-09-20T03:16:34.434Z,99041.62
2018-09-20T03:19:02.885Z,99041.46
2018-09-20T03:21:31.336Z,99027.61
2018-09-20T03:23:59.739Z,99033.77
2018-09-20T03:26:28.394Z,99030.73
2018-09-20T03:28:56.747Z,99031.39
2018-09-20T03:31:25.090Z,99035.06
2018-09-20T03:33:53.452Z,99037.20
2018-09-20T03:36:21.784Z,99036.33
2018-09-20T03:38:50.132Z,99035.33
2018-09-20T03:41:18.562Z,99035.91
2018-09-20T03:43:46.964Z,99032.20
2018-09-20T03:46:15.284Z,99030.71
2018-09-20T03:48:43.816Z,99040.08
2018-09-20T03:51:12.389Z,99037.48
2018-09-20T03:53:41.037Z,99042.08
2018-09-20T03:56:09.422Z,99035.44
2018-09-20T03:58:37.801Z,99039.27
2018-09-20T04:01:06.177Z,99047.60
2018-09-20T04:03:34.554Z,99043.62
2018-09-20T04:06:02.950Z,99046.52
2018-09-20T04:08:31.330Z,99043.05
2018-09-20T04:10:59.675Z,99052.34
2018-09-20T04:13:28.065Z,99047.05
2018-09-20T04:15:56.428Z,99040.72
2018-09-20T04:18:24.931Z,99037.91
2018-09-20T04:20:53.253Z,99043.89
2018-09-20T04:23:21.860Z,99045.69
2018-09-20T04:25:50.181Z,99049.44
2018-09-20T04:28:18.600Z,99051.39
2018-09-20T04:30:46.928Z,99046.79
2018-09-20T04:33:15.325Z,99051.70
2018-09-20T04:35:43.657Z,99044.05
2018-09-20T04:38:12.023Z,99045.20
2018-09-20T04:40:40.334Z,99038.69
2018-09-20T04:43:08.691Z,99047.39
2018-09-20T04:45:37.023Z,99045.38
2018-09-20T04:48:05.367Z,99043.23
2018-09-20T04:50:33.710Z,99046.14
2018-09-20T04:53:02.134Z,99040.08
2018-09-20T04:55:30.467Z,99047.67
2018-09-20T04:57:58.859Z,99047.47
2018-09-20T05:00:27.187Z,99051.84
2018-09-20T05:02:55.520Z,99046.03
2018-09-20T05:05:23.826Z,99049.91
2018-09-20T05:07:52.188Z,99053.58
2018-09-20T05:10:20.559Z,99046.27
2018-09-20T05:12:48.972Z,99052.77
2018-09-20T05:15:17.351Z,99051.12
2018-09-20T05:17:45.683Z,99050.27
2018-09-20T05:20:14.105Z,99044.02
2018-09-20T05:22:42.726Z,99045.23
2018-09-20T05:25:18.425Z,99049.86
2018-09-20T05:27:46.847Z,99051.39
2018-09-20T05:30:15.263Z,99044.43
2018-09-20T05:32:43.654Z,99047.22
2018-09-20T05:35:12.039Z,99042.66
2018-09-20T05:37:40.380Z,99044.38
2018-09-20T05:40:08.838Z,99053.61
2018-09-20T05:42:37.262Z,99052.84
2018-09-20T05:45:06.082Z,99052.92
2018-09-20T05:47:35.140Z,99054.80
2018-09-20T05:50:03.565Z,99049.86
2018-09-20T05:52:32.517Z,99050.33
2018-09-20T05:55:01.000Z,99046.29
2018-09-20T05:57:29.832Z,99045.95
2018-09-20T05:59:58.166Z,99043.55
2018-09-20T06:02:27.118Z,99049.42
2018-09-20T06:04:55.571Z,99052.92
2018-09-20T06:07:23.987Z,99051.73
2018-09-20T06:09:52.491Z,99052.34
2018-09-20T06:12:21.472Z,99050.20
2018-09-20T06:14:49.898Z,99042.54
2018-09-20T06:17:18.382Z,99047.82
2018-09-20T06:19:46.866Z,99046.23
2018-09-20T06:22:15.231Z,99046.77
2018-09-20T06:24:43.604Z,99050.77
2018-09-20T06:27:12.159Z,99048.67
2018-09-20T06:29:40.532Z,99043.20
2018-09-20T06:32:08.852Z,99049.22
2018-09-20T06:34:37.411Z,99057.77
2018-09-20T06:37:06.138Z,99050.85
2018-09-20T06:39:34.473Z,99051.31
2018-09-20T06:42:02.818Z,99055.81
2018-09-20T06:44:31.187Z,99048.52
2018-09-20T06:46:59.498Z,99051.23
2018-09-20T06:49:27.884Z,99048.05
2018-09-20T06:51:56.194Z,99051.01
2018-09-20T06:54:45.464Z,99049.05
2018-09-20T06:57:13.787Z,99049.51
2018-09-20T06:59:42.403Z,99050.06
2018-09-20T07:02:10.689Z,99053.81
2018-09-20T07:04:45.302Z,99049.14
2018-09-20T07:07:13.609Z,99047.76
2018-09-20T07:09:42.224Z,99044.58
2018-09-20T07:12:10.621Z,99043.03
2018-09-20T07:14:39.005Z,99040.65
2018-09-20T07:17:07.364Z,99047.83
2018-09-20T07:19:35.709Z,99046.59
2018-09-20T07:22:04.044Z,99049.77
2018-09-20T07:24:32.397Z,99050.72
2018-09-20T07:27:00.738Z,99046.55
2018-09-20T07:29:29.060Z,99040.39
2018-09-20T07:31:57.421Z,99038.27
2018-09-20T07:34:25.800Z,99031.22
2018-09-20T07:36:54.097Z,99025.71
2018-09-20T07:39:22.461Z,99024.34
2018-09-20T07:41:50.761Z,99019.42
2018-09-20T07:44:19.095Z,99027.31
2018-09-20T07:46:47.468Z,99017.33
2018-09-20T07:49:15.809Z,99022.80
2018-09-20T07:51:44.174Z,99014.24
2018-09-20T07:54:12.513Z,99025.22
2018-09-20T07:56:40.898Z,99020.89
2018-09-20T07:59:09.220Z,99021.53
2018-09-20T08:01:37.646Z,99019.53
2018-09-20T08:04:05.985Z,99012.70
2018-09-20T08:06:34.421Z,99011.02
2018-09-20T08:09:02.821Z,99012.86
2018-09-20T08:11:31.204Z,99012.55
2018-09-20T08:13:59.553Z,99015.70
2018-09-20T08:16:27.889Z,99008.83
2018-09-20T08:18:59.184Z,99007.59
2018-09-20T08:21:27.585Z,99009.40
2018-09-20T08:23:55.990Z,99009.16
2018-09-20T08:26:24.386Z,99012.77
2018-09-20T08:28:52.865Z,99003.48
2018-09-20T08:31:21.257Z,99012.91
2018-09-20T08:33:49.592Z,99008.41
2018-09-20T08:36:18.646Z,99002.14
2018-09-20T08:38:46.965Z,99000.43
2018-09-20T08:41:15.299Z,99009.83
2018-09-20T08:43:43.629Z,99012.70
2018-09-20T08:46:12.005Z,99008.51
2018-09-20T08:48:40.346Z,99014.31
2018-09-20T08:51:08.780Z,99015.11
2018-09-20T08:53:37.063Z,99024.98
2018-09-20T08:56:05.415Z,99019.17
2018-09-20T08:58:33.997Z,99021.45
2018-09-20T09:01:03.936Z,99021.31
2018-09-20T09:03:32.296Z,99016.92
2018-09-20T09:06:01.249Z,99016.38
2018-09-20T09:08:29.634Z,99015.94
2018-09-20T09:10:58.019Z,99010.53
2018-09-20T09:13:26.365Z,99004.42
2018-09-20T09:15:54.748Z,99006.91
2018-09-20T09:18:23.104Z,98986.45
2018-09-20T09:20:52.991Z,98999.89
2018-09-20T09:23:27.349Z,98997.02
2018-09-20T09:25:55.710Z,98989.24
2018-09-20T09:28:24.094Z,98982.91
2018-09-20T09:30:52.650Z,98991.21
2018-09-20T09:33:20.994Z,98994.30
2018-09-20T09:35:49.391Z,98974.23
2018-09-20T09:38:17.758Z,98977.38
2018-09-20T09:40:46.135Z,98981.98
2018-09-20T09:43:14.451Z,98975.77
2018-09-20T09:45:42.808Z,98975.28
2018-09-20T09:48:11.209Z,98972.95
2018-09-20T09:50:39.510Z,98964.63
2018-09-20T09:53:07.936Z,98967.66
2018-09-20T09:55:36.298Z,98957.95
2018-09-20T09:58:04.631Z,98954.28
2018-09-20T10:00:35.442Z,98951.55
2018-09-20T10:03:03.790Z,98951.97
2018-09-20T10:05:32.151Z,98956.79
2018-09-20T10:08:00.513Z,98953.12
2018-09-20T10:10:28.904Z,98944.00
2018-09-20T10:12:57.257Z,98957.37
2018-09-20T10:15:25.586Z,98948.14
2018-09-20T10:17:53.897Z,98940.53
2018-09-20T10:20:22.395Z,98941.90
2018-09-20T10:22:50.745Z,98928.34
2018-09-20T10:25:19.290Z,98939.14
2018-09-20T10:27:47.688Z,98934.64
2018-09-20T10:30:16.112Z,98933.19
2018-09-20T10:32:44.457Z,98937.39
2018-09-20T10:35:12.822Z,98938.77
2018-09-20T10:37:41.153Z,98941.31
2018-09-20T10:40:09.643Z,98942.94
2018-09-20T10:42:38.021Z,98933.28
2018-09-20T10:45:06.392Z,98923.30
2018-09-20T10:47:34.780Z,98924.14
2018-09-20T10:50:03.130Z,98917.05
2018-09-20T10:52:31.514Z,98925.77
2018-09-20T10:54:59.885Z,98927.86
2018-09-20T10:57:28.261Z,98921.88
2018-09-20T10:59:56.619Z,98909.59
2018-09-20T11:02:24.929Z,98924.19
2018-09-20T11:04:53.380Z,98913.06
2018-09-20T11:07:21.798Z,98907.21
2018-09-20T11:09:50.141Z,98902.28
2018-09-20T11:12:18.515Z,98904.31
2018-09-20T11:14:46.862Z,98895.78
2018-09-20T11:17:15.240Z,98895.36
2018-09-20T11:19:43.553Z,98888.00
2018-09-20T11:22:11.919Z,98886.57
2018-09-20T11:24:40.284Z,98884.30
2018-09-20T11:27:08.611Z,98879.30
2018-09-20T11:29:37.088Z,98877.14
2018-09-20T11:32:05.456Z,98881.80
2018-09-20T11:34:33.813Z,98866.99
2018-09-20T11:37:02.125Z,98874.20
2018-09-20T11:39:30.513Z,98867.81
2018-09-20T11:41:58.859Z,98866.45
2018-09-20T11:44:27.183Z,98865.63
2018-09-20T11:46:55.556Z,98866.16
2018-09-20T11:49:23.876Z,98875.27
2018-09-20T11:51:52.285Z,98871.02
2018-09-20T11:54:20.609Z,98862.76
2018-09-20T11:56:48.965Z,98858.58
2018-09-20T11:59:17.335Z,98850.16
2018-09-20T12:01:45.812Z,98855.09
2018-09-20T12:04:14.161Z,98851.34
2018-09-20T12:06:42.567Z,98843.88
2018-09-20T12:09:11.091Z,98857.97
2018-09-20T12:11:39.441Z,98840.70
2018-09-20T12:14:07.790Z,98846.63
2018-09-20T12:16:36.108Z,98850.11
2018-09-20T12:19:04.472Z,98837.03
2018-09-20T12:21:32.911Z,98843.34
2018-09-20T12:24:01.235Z,98829.75
2018-09-20T12:26:29.648Z,98821.65
2018-09-20T12:28:57.971Z,98831.88
2018-09-20T12:31:34.570Z,98817.59
2018-09-20T12:34:02.931Z,98804.69
2018-09-20T12:36:31.279Z,98804.70
2018-09-20T12:38:59.651Z,98807.17
2018-09-20T12:41:28.166Z,98810.16
2018-09-20T12:43:56.516Z,98803.13
2018-09-20T12:46:25.159Z,98803.44
2018-09-20T12:48:55.520Z,98790.90
2018-09-20T12:51:24.126Z,98785.12
2018-09-20T12:53:59.172Z,98780.23
2018-09-20T12:56:27.657Z,98783.77
2018-09-20T12:58:57.477Z,98785.49
2018-09-20T13:01:27.423Z,98789.91
2018-09-20T13:03:56.504Z,98786.72
2018-09-20T13:06:28.856Z,98774.47
2018-09-20T13:08:57.544Z,98776.61
2018-09-20T13:11:28.006Z,98788.02
2018-09-20T13:13:58.275Z,98771.70
2018-09-20T13:16:32.059Z,98781.58
2018-09-20T13:19:00.635Z,98778.19
2018-09-20T13:21:29.975Z,98772.04
2018-09-20T13:24:02.213Z,98769.72
2018-09-20T13:26:31.549Z,98770.75
2018-09-20T13:29:00.267Z,98757.84
2018-09-20T13:31:32.885Z,98753.62
2018-09-20T13:34:01.661Z,98756.12
2018-09-20T13:36:31.747Z,98755.74
2018-09-20T13:39:00.192Z,98750.08
2018-09-20T13:41:28.757Z,98757.89
2018-09-20T13:43:57.791Z,98748.12
2018-09-20T13:46:26.673Z,98752.59
2018-09-20T13:48:55.927Z,98760.03
2018-09-20T13:51:26.545Z,98761.03
2018-09-20T13:53:54.893Z,98751.70
2018-09-20T13:56:25.169Z,98757.96
2018-09-20T13:58:55.358Z,98750.86
2018-09-20T14:01:23.854Z,98748.36
2018-09-20T14:03:53.635Z,98749.97
2018-09-20T14:06:22.168Z,98742.19
2018-09-20T14:08:51.704Z,98740.34
2018-09-20T14:11:20.765Z,98738.03
2018-09-20T14:13:49.346Z,98734.77
2018-09-20T14:16:18.266Z,98730.05
2018-09-20T14:18:47.652Z,98728.63
2018-09-20T14:21:18.755Z,98723.55
2018-09-20T14:23:48.813Z,98720.45
2018-09-20T14:26:17.900Z,98717.28
2018-09-20T14:28:46.334Z,98717.94
2018-09-20T14:31:14.905Z,98719.31
2018-09-20T14:33:43.475Z,98708.91
2018-09-20T14:36:13.803Z,98710.67
2018-09-20T14:38:43.006Z,98707.95
2018-09-20T14:41:13.389Z,98702.08
2018-09-20T14:43:42.343Z,98701.35
2018-09-20T14:46:16.414Z,98709.15
2018-09-20T14:48:45.449Z,98702.56
2018-09-20T14:51:15.220Z,98707.30
2018-09-20T14:53:44.807Z,98705.64
2018-09-20T14:56:13.184Z,98697.47
2018-09-20T14:58:41.572Z,98696.23
2018-09-20T15:01:09.956Z,98692.48
2018-09-20T15:03:38.306Z,98683.19
2018-09-20T15:06:06.754Z,98686.11
2018-09-20T15:08:35.116Z,98683.23
2018-09-20T15:11:03.617Z,98683.40
2018-09-20T15:13:32.161Z,98677.70
2018-09-20T15:16:00.666Z,98685.44
2018-09-20T15:18:29.902Z,98677.92
2018-09-20T15:20:58.202Z,98677.38
2018-09-20T15:23:26.671Z,98672.59
2018-09-20T15:25:55.255Z,98680.02
2018-09-20T15:28:23.746Z,98678.55
2018-09-20T15:30:52.492Z,98677.67
2018-09-20T15:33:33.293Z,98681.81
2018-09-20T15:36:29.223Z,98681.81
2018-09-20T15:39:03.219Z,98673.45
2018-09-20T15:41:31.674Z,98674.75
2018-09-20T15:44:00.459Z,98668.93
2018-09-20T15:46:29.074Z,98665.05
2018-09-20T15:48:57.425Z,98677.78
2018-09-20T15:51:25.878Z,98668.41
2018-09-20T15:53:55.543Z,98664.23
2018-09-20T15:56:23.926Z,98663.83
2018-09-20T15:58:52.358Z,98659.30
2018-09-20T16:01:20.870Z,98656.67
2018-09-20T16:03:49.382Z,98661.09
2018-09-20T16:06:18.141Z,98655.96
2018-09-20T16:08:47.748Z,98651.03
2018-09-20T16:11:17.327Z,98653.08
2018-09-20T16:13:46.066Z,98656.78
2018-09-20T16:16:14.551Z,98653.46
2018-09-20T16:18:43.062Z,98643.38
2018-09-20T16:21:17.594Z,98645.33
2018-09-20T16:23:46.155Z,98642.00
2018-09-20T16:26:14.754Z,98643.47
2018-09-20T16:28:56.160Z,98635.80
2018-09-20T16:31:51.964Z,98634.28
2018-09-20T16:35:32.150Z,98630.10
2018-09-20T16:38:28.331Z,98621.98
2018-09-20T16:40:59.471Z,98620.36
2018-09-20T16:43:29.949Z,98622.95
2018-09-20T16:46:00.590Z,98620.90
2018-09-20T16:48:29.197Z,98623.35
2018-09-20T16:50:57.781Z,98624.50
2018-09-20T16:56:18.902Z,98623.96
2018-09-20T16:58:48.391Z,98621.80
2018-09-20T17:04:05.491Z,98621.74
2018-09-20T17:06:35.083Z,98624.47
2018-09-20T17:23:27.603Z,98619.05
2018-09-20T17:25:56.187Z,98621.20
2018-09-20T17:28:24.819Z,98613.47
2018-09-20T17:30:53.272Z,98610.19
2018-09-20T17:33:28.468Z,98605.55
2018-09-20T17:35:57.103Z,98611.82
2018-09-20T17:38:25.990Z,98610.06
2018-09-20T17:41:12.008Z,98605.28
2018-09-20T17:43:53.766Z,98601.42
2018-09-20T17:46:22.352Z,98597.13
2018-09-20T17:48:50.860Z,98595.21
2018-09-20T17:51:20.516Z,98595.33
2018-09-20T17:53:49.389Z,98597.73
2018-09-20T17:56:18.212Z,98593.38
2018-09-20T17:58:47.140Z,98594.61
2018-09-20T18:01:15.567Z,98594.52
2018-09-20T18:03:44.014Z,98592.09
2018-09-20T18:06:12.473Z,98596.47
2018-09-20T18:08:40.883Z,98598.00
2018-09-20T18:11:10.721Z,98603.00
2018-09-20T18:13:45.499Z,98601.66
2018-09-20T18:16:17.229Z,98594.38
2018-09-20T18:19:02.325Z,98596.98
2018-09-20T18:21:30.788Z,98593.23
2018-09-20T18:24:11.772Z,98599.28
2018-09-20T18:26:40.795Z,98592.89
2018-09-20T18:29:09.444Z,98597.58
2018-09-20T18:31:39.054Z,98603.94
2018-09-20T18:34:08.324Z,98598.52
2018-09-20T18:36:36.701Z,98592.58
2018-09-20T18:39:10.261Z,98591.19
2018-09-20T18:41:40.047Z,98599.39
2018-09-20T18:44:09.381Z,98595.02
2018-09-20T18:46:37.876Z,98591.88
2018-09-20T18:49:14.767Z,98587.08
2018-09-20T18:51:47.835Z,98593.59
2018-09-20T18:54:20.251Z,98594.03
2018-09-20T18:56:48.679Z,98591.80
2018-09-20T18:59:17.068Z,98602.11
2018-09-20T19:01:45.496Z,98607.20
2018-09-20T19:04:14.128Z,98602.17
2018-09-20T19:06:46.126Z,98603.20
2018-09-20T19:09:14.803Z,98597.42
2018-09-20T19:11:43.625Z,98598.90
2018-09-20T19:14:13.594Z,98602.14
2018-09-20T19:16:43.536Z,98599.69
2018-09-20T19:19:20.113Z,98587.45
2018-09-20T19:21:48.610Z,98590.94
2018-09-20T19:24:17.210Z,98590.55
2018-09-20T19:26:46.104Z,98589.40
2018-09-20T19:29:15.064Z,98586.45
2018-09-20T19:31:44.949Z,98585.55
2018-09-20T19:34:13.694Z,98587.03
2018-09-20T19:36:43.293Z,98583.56
2018-09-20T19:39:17.329Z,98576.84
2018-09-20T19:41:46.486Z,98576.20
2018-09-20T19:44:15.145Z,98575.63
2018-09-20T19:46:44.250Z,98569.69
2018-09-20T19:49:12.963Z,98565.53
2018-09-20T19:51:43.561Z,98561.61
2018-09-20T19:54:12.420Z,98561.36
2018-09-20T19:56:41.228Z,98559.96
2018-09-20T19:59:10.702Z,98558.16
2018-09-20T20:01:40.237Z,98554.24
2018-09-20T20:04:09.121Z,98544.79
2018-09-20T20:06:37.967Z,98546.34
2018-09-20T20:09:10.309Z,98542.73
2018-09-20T20:11:39.072Z,98542.50
2018-09-20T20:14:09.722Z,98539.33
2018-09-20T20:16:38.655Z,98537.40
2018-09-20T20:19:07.180Z,98532.35
2018-09-20T20:21:35.654Z,98531.31
2018-09-20T20:24:04.299Z,98530.01
2018-09-20T20:26:32.634Z,98521.63
2018-09-20T20:29:01.249Z,98526.47
2018-09-20T20:31:29.619Z,98522.13
2018-09-20T20:33:57.930Z,98525.98
2018-09-20T20:36:26.766Z,98522.41
2018-09-20T20:38:55.380Z,98522.05
2018-09-20T20:41:23.716Z,98519.62
2018-09-20T20:43:52.450Z,98518.86
2018-09-20T20:46:20.758Z,98514.02
2018-09-20T20:48:49.149Z,98518.50
2018-09-20T20:51:18.523Z,98510.48
2018-09-20T20:53:46.943Z,98506.94
2018-09-20T20:56:15.368Z,98499.89
2018-09-20T20:58:43.768Z,98502.70
2018-09-20T21:01:20.702Z,98506.48
2018-09-20T21:03:50.721Z,98499.44
2018-09-20T21:06:19.758Z,98493.98
2018-09-20T21:08:48.269Z,98484.34
2018-09-20T21:11:17.184Z,98489.84
2018-09-20T21:13:45.656Z,98482.06
2018-09-20T21:16:14.062Z,98485.22
2018-09-20T21:18:42.379Z,98477.65
2018-09-20T21:21:10.875Z,98483.19
2018-09-20T21:23:39.200Z,98481.42
2018-09-20T21:26:07.682Z,98474.58
2018-09-20T21:28:36.042Z,98473.28
2018-09-20T21:31:04.481Z,98472.94
2018-09-20T21:33:32.840Z,98474.20
2018-09-20T21:36:01.344Z,98472.06
2018-09-20T21:38:29.763Z,98472.69
2018-09-20T21:41:32.605Z,98468.75
2018-09-20T21:44:00.939Z,98459.64
2018-09-20T21:46:29.339Z,98455.08
2018-09-20T21:48:57.706Z,98458.50
2018-09-20T21:51:26.103Z,98446.37
2018-09-20T21:53:54.442Z,98450.80
2018-09-20T21:56:22.831Z,98450.27
2018-09-20T21:58:51.189Z,98448.65
2018-09-20T22:01:19.505Z,98448.40
2018-09-20T22:03:47.876Z,98449.56
2018-09-20T22:06:16.311Z,98448.86
2018-09-20T22:08:44.947Z,98441.10
2018-09-20T22:11:13.497Z,98441.98
2018-09-20T22:13:41.853Z,98440.17
2018-09-20T22:16:10.387Z,98435.81
2018-09-20T22:18:38.737Z,98433.23
2018-09-20T22:21:07.108Z,98433.08
2018-09-20T22:23:35.471Z,98426.02
2018-09-20T22:26:03.871Z,98422.81
2018-09-20T22:28:32.173Z,98417.15
2018-09-20T22:31:00.503Z,98424.13
2018-09-20T22:33:28.851Z,98409.66
2018-09-20T22:35:58.024Z,98411.77
2018-09-20T22:38:26.397Z,98414.33
2018-09-20T22:40:54.724Z,98403.78
2018-09-20T22:43:23.063Z,98409.39
2018-09-20T22:45:51.416Z,98405.02
2018-09-20T22:48:19.781Z,98397.46
2018-09-20T22:50:48.111Z,98401.25
2018-09-20T22:53:16.464Z,98395.86
2018-09-20T22:55:44.793Z,98397.78
2018-09-20T22:58:13.117Z,98395.98
2018-09-20T23:00:41.472Z,98388.05
2018-09-20T23:03:16.420Z,98394.59
2018-09-20T23:05:44.741Z,98393.76
2018-09-20T23:08:13.112Z,98396.81
2018-09-20T23:10:41.465Z,98390.05
2018-09-20T23:13:09.809Z,98389.94
2018-09-20T23:15:38.142Z,98392.95
2018-09-20T23:18:06.547Z,98389.14
2018-09-20T23:20:35.081Z,98391.73
2018-09-20T23:23:03.518Z,98390.72
2018-09-20T23:25:31.896Z,98393.94
2018-09-20T23:28:00.273Z,98390.54
2018-09-20T23:30:28.633Z,98384.61
2018-09-20T23:32:56.984Z,98380.42
2018-09-20T23:35:25.340Z,98374.73
2018-09-20T23:37:53.661Z,98367.84
2018-09-20T23:40:22.017Z,98369.19
2018-09-20T23:42:50.433Z,98368.44
2018-09-20T23:45:18.782Z,98367.30
2018-09-20T23:47:47.142Z,98366.89
2018-09-20T23:50:15.665Z,98362.70
2018-09-20T23:52:44.020Z,98358.30
2018-09-20T23:55:12.365Z,98353.81
2018-09-20T23:57:40.707Z,98358.59
